sensor_id;sensor_type;location;lat;lon;timestamp;pressure;altitude;pressure_sealevel;temperature;humidity
29197;BME280;62796;42.654;23.316;2023-03-20T00:01:09;94889.31;;;9.69;43.36
29197;BME280;62796;42.654;23.316;2023-03-20T00:03:36;94876.16;;;9.64;43.58
29197;BME280;62796;42.654;23.316;2023-03-20T00:06:01;94876.81;;;9.59;43.53
29197;BME280;62796;42.654;23.316;2023-03-20T00:08:26;94877.75;;;9.56;43.24
29197;BME280;62796;42.654;23.316;2023-03-20T00:10:52;94882.38;;;9.50;43.81
29197;BME280;62796;42.654;23.316;2023-03-20T00:13:25;94877.44;;;9.54;43.62
29197;BME280;62796;42.654;23.316;2023-03-20T00:15:52;94867.69;;;9.43;43.60
29197;BME280;62796;42.654;23.316;2023-03-20T00:18:20;94882.13;;;9.38;43.79
29197;BME280;62796;42.654;23.316;2023-03-20T00:20:48;94868.94;;;9.33;43.59
29197;BME280;62796;42.654;23.316;2023-03-20T00:23:15;94868.94;;;9.33;43.82
29197;BME280;62796;42.654;23.316;2023-03-20T00:25:41;94875.41;;;9.30;43.90
29197;BME280;62796;42.654;23.316;2023-03-20T00:28:36;94872.38;;;9.28;43.88
29197;BME280;62796;42.654;23.316;2023-03-20T00:31:04;94863.47;;;9.24;43.91
29197;BME280;62796;42.654;23.316;2023-03-20T00:33:30;94870.72;;;9.22;43.95
29197;BME280;62796;42.654;23.316;2023-03-20T00:35:56;94869.34;;;9.17;44.13
29197;BME280;62796;42.654;23.316;2023-03-20T00:38:23;94867.16;;;9.21;44.07
29197;BME280;62796;42.654;23.316;2023-03-20T00:40:48;94863.81;;;9.17;44.42
29197;BME280;62796;42.654;23.316;2023-03-20T00:43:14;94854.63;;;9.11;44.41
29197;BME280;62796;42.654;23.316;2023-03-20T00:45:40;94861.03;;;9.17;44.17
29197;BME280;62796;42.654;23.316;2023-03-20T00:48:12;94851.28;;;9.07;44.12
29197;BME280;62796;42.654;23.316;2023-03-20T00:50:38;94858.63;;;9.10;44.68
29197;BME280;62796;42.654;23.316;2023-03-20T00:53:05;94851.28;;;9.07;44.91
29197;BME280;62796;42.654;23.316;2023-03-20T00:55:30;94865.38;;;9.09;45.26
29197;BME280;62796;42.654;23.316;2023-03-20T00:57:58;94863.09;;;9.08;45.03
29197;BME280;62796;42.654;23.316;2023-03-20T01:00:42;94858.84;;;8.98;45.24
29197;BME280;62796;42.654;23.316;2023-03-20T01:03:20;94855.97;;;8.92;45.46
29197;BME280;62796;42.654;23.316;2023-03-20T01:05:48;94856.09;;;8.98;45.70
29197;BME280;62796;42.654;23.316;2023-03-20T01:08:20;94840.91;;;8.93;45.48
29197;BME280;62796;42.654;23.316;2023-03-20T01:10:47;94830.38;;;8.82;45.40
29197;BME280;62796;42.654;23.316;2023-03-20T01:13:21;94846.78;;;8.86;45.45
29197;BME280;62796;42.654;23.316;2023-03-20T01:15:48;94844.47;;;8.84;45.74
29197;BME280;62796;42.654;23.316;2023-03-20T01:18:15;94833.91;;;8.83;45.67
29197;BME280;62796;42.654;23.316;2023-03-20T01:20:41;94836.81;;;8.79;45.84
29197;BME280;62796;42.654;23.316;2023-03-20T01:23:07;94825.34;;;8.72;46.01
29197;BME280;62796;42.654;23.316;2023-03-20T01:25:33;94840.81;;;8.78;46.07
29197;BME280;62796;42.654;23.316;2023-03-20T01:27:59;94839.28;;;8.77;45.90
29197;BME280;62796;42.654;23.316;2023-03-20T01:30:27;94838.53;;;8.77;46.13
29197;BME280;62796;42.654;23.316;2023-03-20T01:32:53;94830.88;;;8.72;46.12
29197;BME280;62796;42.654;23.316;2023-03-20T01:35:24;94844.38;;;8.70;46.29
29197;BME280;62796;42.654;23.316;2023-03-20T01:37:51;94836.44;;;8.63;46.36
29197;BME280;62796;42.654;23.316;2023-03-20T01:40:30;94847.78;;;8.65;46.06
29197;BME280;62796;42.654;23.316;2023-03-20T01:42:57;94843.03;;;8.65;45.96
29197;BME280;62796;42.654;23.316;2023-03-20T01:45:27;94839.50;;;8.65;45.95
29197;BME280;62796;42.654;23.316;2023-03-20T01:47:55;94834.59;;;8.60;46.10
29197;BME280;62796;42.654;23.316;2023-03-20T01:50:31;94839.03;;;8.57;46.22
29197;BME280;62796;42.654;23.316;2023-03-20T01:53:12;94849.34;;;8.57;46.51
29197;BME280;62796;42.654;23.316;2023-03-20T01:55:40;94854.53;;;8.55;46.54
29197;BME280;62796;42.654;23.316;2023-03-20T01:58:15;94858.38;;;8.57;46.26
29197;BME280;62796;42.654;23.316;2023-03-20T02:00:43;94854.53;;;8.55;46.39
29197;BME280;62796;42.654;23.316;2023-03-20T02:03:09;94847.81;;;8.47;46.62
29197;BME280;62796;42.654;23.316;2023-03-20T02:05:36;94854.28;;;8.44;46.73
29197;BME280;62796;42.654;23.316;2023-03-20T02:08:28;94848.13;;;8.40;46.95
29197;BME280;62796;42.654;23.316;2023-03-20T02:10:55;94842.97;;;8.32;47.04
29197;BME280;62796;42.654;23.316;2023-03-20T02:13:21;94832.19;;;8.25;46.99
29197;BME280;62796;42.654;23.316;2023-03-20T02:16:17;94834.34;;;8.30;46.95
29197;BME280;62796;42.654;23.316;2023-03-20T02:18:45;94835.91;;;8.31;46.87
29197;BME280;62796;42.654;23.316;2023-03-20T02:45:25;94839.88;;;8.12;47.28
29197;BME280;62796;42.654;23.316;2023-03-20T02:47:59;94838.38;;;8.11;47.60
29197;BME280;62796;42.654;23.316;2023-03-20T02:50:32;94834.41;;;8.03;47.56
29197;BME280;62796;42.654;23.316;2023-03-20T02:55:55;94829.19;;;8.05;47.76
29197;BME280;62796;42.654;23.316;2023-03-20T02:58:51;94826.88;;;8.04;47.82
29197;BME280;62796;42.654;23.316;2023-03-20T03:01:35;94834.41;;;8.03;47.86
29197;BME280;62796;42.654;23.316;2023-03-20T03:04:10;94824.59;;;8.02;48.16
29197;BME280;62796;42.654;23.316;2023-03-20T03:06:41;94824.28;;;8.00;47.96
29197;BME280;62796;42.654;23.316;2023-03-20T03:09:15;94829.19;;;8.05;47.94
29197;BME280;62796;42.654;23.316;2023-03-20T03:11:55;94826.13;;;8.03;47.84
29197;BME280;62796;42.654;23.316;2023-03-20T03:16:56;94831.03;;;7.99;47.69
29197;BME280;62796;42.654;23.316;2023-03-20T03:19:25;94824.75;;;7.99;47.69
29197;BME280;62796;42.654;23.316;2023-03-20T03:21:52;94822.75;;;7.99;47.66
29197;BME280;62796;42.654;23.316;2023-03-20T03:24:33;94822.91;;;7.96;47.82
29197;BME280;62796;42.654;23.316;2023-03-20T03:27:02;94828.13;;;7.94;47.62
29197;BME280;62796;42.654;23.316;2023-03-20T03:29:35;94824.44;;;7.88;47.89
29197;BME280;62796;42.654;23.316;2023-03-20T03:32:02;94829.81;;;7.91;47.94
29197;BME280;62796;42.654;23.316;2023-03-20T03:34:30;94832.25;;;7.89;47.68
29197;BME280;62796;42.654;23.316;2023-03-20T03:37:10;94834.72;;;7.87;48.28
29197;BME280;62796;42.654;23.316;2023-03-20T03:39:46;94836.84;;;7.83;48.31
29197;BME280;62796;42.654;23.316;2023-03-20T03:47:31;94828.56;;;7.83;48.06
29197;BME280;62796;42.654;23.316;2023-03-20T03:50:09;94829.50;;;7.80;47.99
29197;BME280;62796;42.654;23.316;2023-03-20T03:52:37;94826.72;;;7.80;48.06
29197;BME280;62796;42.654;23.316;2023-03-20T03:55:18;94830.41;;;7.77;48.21
29197;BME280;62796;42.654;23.316;2023-03-20T03:57:49;94824.13;;;7.76;48.28
29197;BME280;62796;42.654;23.316;2023-03-20T04:00:19;94817.41;;;7.68;48.30
29197;BME280;62796;42.654;23.316;2023-03-20T04:02:50;94821.69;;;7.69;48.22
29197;BME280;62796;42.654;23.316;2023-03-20T04:05:18;94821.41;;;7.67;48.25
29197;BME280;62796;42.654;23.316;2023-03-20T04:07:46;94824.16;;;7.67;48.37
29197;BME280;62796;42.654;23.316;2023-03-20T04:10:12;94815.13;;;7.67;48.25
29197;BME280;62796;42.654;23.316;2023-03-20T04:12:40;94807.44;;;7.71;48.38
29197;BME280;62796;42.654;23.316;2023-03-20T04:15:06;94805.78;;;7.64;48.44
29197;BME280;62796;42.654;23.316;2023-03-20T04:17:32;94812.38;;;7.67;48.62
29197;BME280;62796;42.654;23.316;2023-03-20T04:19:58;94799.66;;;7.60;48.55
29197;BME280;62796;42.654;23.316;2023-03-20T04:22:24;94797.97;;;7.63;48.64
29197;BME280;62796;42.654;23.316;2023-03-20T04:24:49;94806.22;;;7.63;48.88
29197;BME280;62796;42.654;23.316;2023-03-20T04:27:15;94797.34;;;7.59;48.46
29197;BME280;62796;42.654;23.316;2023-03-20T04:29:42;94796.41;;;7.62;48.66
29197;BME280;62796;42.654;23.316;2023-03-20T04:32:07;94801.34;;;7.58;48.80
29197;BME280;62796;42.654;23.316;2023-03-20T04:34:33;94806.38;;;7.59;48.63
29197;BME280;62796;42.654;23.316;2023-03-20T04:36:58;94807.28;;;7.56;48.36
29197;BME280;62796;42.654;23.316;2023-03-20T04:39:25;94795.81;;;7.58;48.08
29197;BME280;62796;42.654;23.316;2023-03-20T04:41:51;94809.75;;;7.63;48.17
29197;BME280;62796;42.654;23.316;2023-03-20T04:44:16;94814.78;;;7.65;48.16
29197;BME280;62796;42.654;23.316;2023-03-20T04:46:42;94825.22;;;7.70;48.34
29197;BME280;62796;42.654;23.316;2023-03-20T04:49:07;94829.19;;;7.69;48.41
29197;BME280;62796;42.654;23.316;2023-03-20T04:51:32;94830.75;;;7.70;48.36
29197;BME280;62796;42.654;23.316;2023-03-20T04:53:58;94835.34;;;7.73;48.46
29197;BME280;62796;42.654;23.316;2023-03-20T04:56:23;94841.78;;;7.70;48.59
29197;BME280;62796;42.654;23.316;2023-03-20T04:58:49;94834.41;;;7.67;48.78
29197;BME280;62796;42.654;23.316;2023-03-20T05:01:14;94845.59;;;7.72;48.53
29197;BME280;62796;42.654;23.316;2023-03-20T05:03:39;94854.00;;;7.78;48.26
29197;BME280;62796;42.654;23.316;2023-03-20T05:06:05;94838.84;;;7.82;47.77
29197;BME280;62796;42.654;23.316;2023-03-20T05:08:30;94840.38;;;7.84;48.21
29197;BME280;62796;42.654;23.316;2023-03-20T05:10:56;94845.44;;;7.85;48.15
29197;BME280;62796;42.654;23.316;2023-03-20T05:13:22;94852.03;;;7.88;47.98
29197;BME280;62796;42.654;23.316;2023-03-20T05:15:47;94844.19;;;7.86;48.27
29197;BME280;62796;42.654;23.316;2023-03-20T05:18:12;94840.84;;;7.91;47.90
29197;BME280;62796;42.654;23.316;2023-03-20T05:20:38;94839.16;;;7.94;48.14
29197;BME280;62796;42.654;23.316;2023-03-20T05:23:03;94839.28;;;8.08;47.72
29197;BME280;62796;42.654;23.316;2023-03-20T05:25:29;94852.44;;;8.22;47.29
29197;BME280;62796;42.654;23.316;2023-03-20T05:27:54;94860.44;;;8.29;47.03
29197;BME280;62796;42.654;23.316;2023-03-20T05:30:20;94853.38;;;8.28;47.49
29197;BME280;62796;42.654;23.316;2023-03-20T05:32:48;94861.03;;;8.33;47.13
29197;BME280;62796;42.654;23.316;2023-03-20T05:35:14;94852.91;;;8.39;47.31
29197;BME280;62796;42.654;23.316;2023-03-20T05:37:40;94862.84;;;8.46;47.60
29197;BME280;62796;42.654;23.316;2023-03-20T05:40:08;94863.16;;;8.57;47.65
29197;BME280;62796;42.654;23.316;2023-03-20T05:42:35;94852.97;;;8.72;47.10
29197;BME280;62796;42.654;23.316;2023-03-20T05:45:00;94861.22;;;8.81;47.06
29197;BME280;62796;42.654;23.316;2023-03-20T05:47:26;94859.28;;;8.96;46.63
29197;BME280;62796;42.654;23.316;2023-03-20T05:49:51;94863.22;;;9.13;46.52
29197;BME280;62796;42.654;23.316;2023-03-20T05:52:16;94865.75;;;9.26;46.42
29197;BME280;62796;42.654;23.316;2023-03-20T05:54:42;94872.06;;;9.50;46.02
29197;BME280;62796;42.654;23.316;2023-03-20T05:57:07;94871.94;;;9.68;45.67
29197;BME280;62796;42.654;23.316;2023-03-20T05:59:32;94876.59;;;9.86;45.14
29197;BME280;62796;42.654;23.316;2023-03-20T06:01:58;94869.50;;;10.09;44.14
29197;BME280;62796;42.654;23.316;2023-03-20T06:04:23;94861.84;;;10.27;43.68
29197;BME280;62796;42.654;23.316;2023-03-20T06:06:48;94858.59;;;10.29;43.89
29197;BME280;62796;42.654;23.316;2023-03-20T06:09:14;94861.09;;;10.41;43.99
29197;BME280;62796;42.654;23.316;2023-03-20T06:11:39;94847.69;;;10.54;43.39
29197;BME280;62796;42.654;23.316;2023-03-20T06:14:05;94865.66;;;10.74;43.34
29197;BME280;62796;42.654;23.316;2023-03-20T06:16:30;94862.41;;;10.90;43.22
29197;BME280;62796;42.654;23.316;2023-03-20T06:18:56;94865.44;;;11.06;42.42
29197;BME280;62796;42.654;23.316;2023-03-20T06:21:21;94862.34;;;11.19;42.51
29197;BME280;62796;42.654;23.316;2023-03-20T06:23:46;94861.53;;;11.33;41.77
29197;BME280;62796;42.654;23.316;2023-03-20T06:26:12;94872.41;;;11.51;41.82
29197;BME280;62796;42.654;23.316;2023-03-20T06:28:37;94863.94;;;11.60;40.85
29197;BME280;62796;42.654;23.316;2023-03-20T06:31:03;94872.31;;;11.81;40.88
29197;BME280;62796;42.654;23.316;2023-03-20T06:33:28;94853.72;;;11.87;40.80
29197;BME280;62796;42.654;23.316;2023-03-20T06:35:53;94866.28;;;12.02;40.42
29197;BME280;62796;42.654;23.316;2023-03-20T06:38:19;94869.22;;;12.19;40.29
29197;BME280;62796;42.654;23.316;2023-03-20T06:40:45;94869.13;;;12.34;39.96
29197;BME280;62796;42.654;23.316;2023-03-20T06:43:10;94863.97;;;12.47;39.29
29197;BME280;62796;42.654;23.316;2023-03-20T06:45:37;94872.03;;;12.70;39.33
29197;BME280;62796;42.654;23.316;2023-03-20T06:48:06;94869.13;;;12.85;38.93
29197;BME280;62796;42.654;23.316;2023-03-20T06:50:31;94878.72;;;13.10;38.24
29197;BME280;62796;42.654;23.316;2023-03-20T06:52:56;94870.75;;;13.23;37.86
29197;BME280;62796;42.654;23.316;2023-03-20T06:55:22;94867.84;;;13.43;37.53
29197;BME280;62796;42.654;23.316;2023-03-20T06:57:47;94862.16;;;13.63;36.86
29197;BME280;62796;42.654;23.316;2023-03-20T07:00:13;94862.00;;;13.83;36.50
29197;BME280;62796;42.654;23.316;2023-03-20T07:02:39;94853.00;;;14.05;35.93
29197;BME280;62796;42.654;23.316;2023-03-20T07:05:04;94857.09;;;14.15;35.98
29197;BME280;62796;42.654;23.316;2023-03-20T07:07:31;94856.91;;;14.35;35.75
29197;BME280;62796;42.654;23.316;2023-03-20T07:09:56;94852.13;;;14.47;35.22
29197;BME280;62796;42.654;23.316;2023-03-20T07:12:22;94858.78;;;14.66;34.78
29197;BME280;62796;42.654;23.316;2023-03-20T07:14:52;94843.81;;;14.75;34.62
29197;BME280;62796;42.654;23.316;2023-03-20T07:17:17;94849.13;;;14.78;34.83
29197;BME280;62796;42.654;23.316;2023-03-20T07:19:43;94849.66;;;14.71;34.87
29197;BME280;62796;42.654;23.316;2023-03-20T07:22:17;94852.19;;;14.91;34.49
29197;BME280;62796;42.654;23.316;2023-03-20T07:24:42;94841.56;;;15.07;33.55
29197;BME280;62796;42.654;23.316;2023-03-20T07:27:08;94840.50;;;15.26;33.25
29197;BME280;62796;42.654;23.316;2023-03-20T07:29:33;94834.41;;;15.39;33.48
29197;BME280;62796;42.654;23.316;2023-03-20T07:31:58;94851.91;;;15.67;33.29
29197;BME280;62796;42.654;23.316;2023-03-20T07:34:25;94846.28;;;15.78;32.48
29197;BME280;62796;42.654;23.316;2023-03-20T07:36:50;94847.84;;;15.68;33.05
29197;BME280;62796;42.654;23.316;2023-03-20T07:39:16;94841.22;;;15.71;33.12
29197;BME280;62796;42.654;23.316;2023-03-20T07:41:41;94852.84;;;15.92;32.81
29197;BME280;62796;42.654;23.316;2023-03-20T07:44:06;94850.00;;;16.09;32.48
29197;BME280;62796;42.654;23.316;2023-03-20T07:46:32;94850.19;;;16.27;32.15
29197;BME280;62796;42.654;23.316;2023-03-20T07:48:58;94858.19;;;16.53;31.71
29197;BME280;62796;42.654;23.316;2023-03-20T07:51:24;94849.44;;;16.73;31.37
29197;BME280;62796;42.654;23.316;2023-03-20T07:53:49;94846.72;;;16.97;30.45
29197;BME280;62796;42.654;23.316;2023-03-20T07:56:15;94846.78;;;17.22;29.96
29197;BME280;62796;42.654;23.316;2023-03-20T07:58:40;94843.09;;;17.38;29.78
29197;BME280;62796;42.654;23.316;2023-03-20T08:01:06;94847.75;;;17.59;29.66
29197;BME280;62796;42.654;23.316;2023-03-20T08:03:31;94839.88;;;17.82;30.19
29197;BME280;62796;42.654;23.316;2023-03-20T08:05:56;94846.97;;;18.07;29.72
29197;BME280;62796;42.654;23.316;2023-03-20T08:08:22;94846.88;;;17.94;29.29
29197;BME280;62796;42.654;23.316;2023-03-20T08:10:47;94847.91;;;18.15;28.99
29197;BME280;62796;42.654;23.316;2023-03-20T08:13:13;94845.81;;;18.40;28.68
29197;BME280;62796;42.654;23.316;2023-03-20T08:15:38;94846.31;;;18.63;28.16
29197;BME280;62796;42.654;23.316;2023-03-20T08:18:04;94846.44;;;18.89;27.89
29197;BME280;62796;42.654;23.316;2023-03-20T08:20:30;94849.44;;;19.10;27.28
29197;BME280;62796;42.654;23.316;2023-03-20T08:22:56;94849.00;;;19.38;26.56
29197;BME280;62796;42.654;23.316;2023-03-20T08:25:21;94844.09;;;19.57;26.50
29197;BME280;62796;42.654;23.316;2023-03-20T08:27:47;94828.03;;;19.70;26.25
29197;BME280;62796;42.654;23.316;2023-03-20T08:30:13;94853.25;;;19.89;25.78
29197;BME280;62796;42.654;23.316;2023-03-20T08:32:39;94846.13;;;19.11;26.51
29197;BME280;62796;42.654;23.316;2023-03-20T08:35:05;94850.91;;;19.29;26.31
29197;BME280;62796;42.654;23.316;2023-03-20T08:37:30;94843.13;;;19.54;25.65
29197;BME280;62796;42.654;23.316;2023-03-20T08:39:56;94840.88;;;19.66;25.65
29197;BME280;62796;42.654;23.316;2023-03-20T08:42:21;94848.03;;;19.80;25.33
29197;BME280;62796;42.654;23.316;2023-03-20T08:44:46;94842.63;;;19.37;25.63
29197;BME280;62796;42.654;23.316;2023-03-20T08:47:12;94846.28;;;19.64;25.92
29197;BME280;62796;42.654;23.316;2023-03-20T08:49:38;94840.28;;;20.12;26.02
29197;BME280;62796;42.654;23.316;2023-03-20T08:52:03;94842.44;;;20.46;25.02
29197;BME280;62796;42.654;23.316;2023-03-20T08:54:29;94832.91;;;20.49;25.11
29197;BME280;62796;42.654;23.316;2023-03-20T08:56:54;94832.78;;;20.88;24.64
29197;BME280;62796;42.654;23.316;2023-03-20T08:59:20;94828.13;;;21.24;24.38
29197;BME280;62796;42.654;23.316;2023-03-20T09:01:46;94838.56;;;21.58;23.80
29197;BME280;62796;42.654;23.316;2023-03-20T09:04:12;94839.50;;;21.81;23.20
29197;BME280;62796;42.654;23.316;2023-03-20T09:06:38;94841.81;;;21.62;23.40
29197;BME280;62796;42.654;23.316;2023-03-20T09:09:04;94826.88;;;21.53;23.16
29197;BME280;62796;42.654;23.316;2023-03-20T09:11:30;94827.44;;;21.73;23.22
29197;BME280;62796;42.654;23.316;2023-03-20T09:13:56;94832.97;;;22.07;22.95
29197;BME280;62796;42.654;23.316;2023-03-20T09:16:21;94824.38;;;22.20;22.55
29197;BME280;62796;42.654;23.316;2023-03-20T09:18:47;94824.91;;;22.46;22.11
29197;BME280;62796;42.654;23.316;2023-03-20T09:21:13;94814.78;;;22.58;21.51
29197;BME280;62796;42.654;23.316;2023-03-20T09:23:38;94819.03;;;22.73;22.08
29197;BME280;62796;42.654;23.316;2023-03-20T09:26:04;94818.34;;;22.95;21.75
29197;BME280;62796;42.654;23.316;2023-03-20T09:28:29;94819.50;;;23.07;21.73
29197;BME280;62796;42.654;23.316;2023-03-20T09:30:56;94811.81;;;23.30;21.30
29197;BME280;62796;42.654;23.316;2023-03-20T09:33:22;94812.63;;;23.46;20.47
29197;BME280;62796;42.654;23.316;2023-03-20T09:35:47;94801.31;;;23.68;20.51
29197;BME280;62796;42.654;23.316;2023-03-20T09:38:13;94803.38;;;23.91;20.07
29197;BME280;62796;42.654;23.316;2023-03-20T09:40:58;94800.75;;;23.47;20.37
29197;BME280;62796;42.654;23.316;2023-03-20T09:48:58;94786.81;;;23.80;20.31
29197;BME280;62796;42.654;23.316;2023-03-20T09:51:36;94776.81;;;22.67;21.48
29197;BME280;62796;42.654;23.316;2023-03-20T09:56:44;94757.41;;;23.52;20.66
29197;BME280;62796;42.654;23.316;2023-03-20T09:59:13;94756.06;;;23.38;21.11
29197;BME280;62796;42.654;23.316;2023-03-20T10:01:47;94757.75;;;23.34;21.16
29197;BME280;62796;42.654;23.316;2023-03-20T10:04:15;94737.59;;;23.67;20.34
29197;BME280;62796;42.654;23.316;2023-03-20T10:06:40;94738.75;;;23.64;20.26
29197;BME280;62796;42.654;23.316;2023-03-20T10:21:44;94723.88;;;23.56;21.00
29197;BME280;62796;42.654;23.316;2023-03-20T10:24:16;94729.50;;;23.34;21.46
29197;BME280;62796;42.654;23.316;2023-03-20T10:26:50;94721.56;;;23.02;21.48
29197;BME280;62796;42.654;23.316;2023-03-20T10:29:44;94726.09;;;23.73;20.46
29197;BME280;62796;42.654;23.316;2023-03-20T10:40:29;94702.19;;;24.29;20.21
29197;BME280;62796;42.654;23.316;2023-03-20T10:43:02;94698.69;;;24.53;19.71
29197;BME280;62796;42.654;23.316;2023-03-20T10:45:43;94698.75;;;24.38;19.63
29197;BME280;62796;42.654;23.316;2023-03-20T10:48:22;94694.69;;;24.96;19.08
29197;BME280;62796;42.654;23.316;2023-03-20T10:50:58;94688.50;;;24.50;19.59
29197;BME280;62796;42.654;23.316;2023-03-20T10:55:59;94667.50;;;24.21;19.80
29197;BME280;62796;42.654;23.316;2023-03-20T10:58:31;94673.31;;;23.60;20.23
29197;BME280;62796;42.654;23.316;2023-03-20T11:00:58;94666.13;;;23.75;21.14
29197;BME280;62796;42.654;23.316;2023-03-20T11:03:27;94680.31;;;24.62;19.06
29197;BME280;62796;42.654;23.316;2023-03-20T11:05:58;94670.94;;;25.33;18.81
29197;BME280;62796;42.654;23.316;2023-03-20T11:08:30;94661.94;;;25.86;17.65
29197;BME280;62796;42.654;23.316;2023-03-20T11:11:00;94655.69;;;25.88;17.65
29197;BME280;62796;42.654;23.316;2023-03-20T11:15:53;94652.06;;;26.05;18.34
29197;BME280;62796;42.654;23.316;2023-03-20T11:18:19;94643.22;;;26.35;17.82
29197;BME280;62796;42.654;23.316;2023-03-20T11:20:56;94649.34;;;26.58;17.41
29197;BME280;62796;42.654;23.316;2023-03-20T11:23:29;94648.88;;;26.79;16.76
29197;BME280;62796;42.654;23.316;2023-03-20T11:33:30;94618.97;;;28.08;15.53
29197;BME280;62796;42.654;23.316;2023-03-20T11:35:57;94614.91;;;28.30;14.76
29197;BME280;62796;42.654;23.316;2023-03-20T11:38:23;94616.06;;;28.56;14.34
29197;BME280;62796;42.654;23.316;2023-03-20T11:40:50;94606.72;;;28.84;14.19
29197;BME280;62796;42.654;23.316;2023-03-20T11:45:48;94601.00;;;28.84;14.12
29197;BME280;62796;42.654;23.316;2023-03-20T11:48:19;94590.56;;;29.08;13.37
29197;BME280;62796;42.654;23.316;2023-03-20T11:50:48;94584.03;;;29.27;13.17
29197;BME280;62796;42.654;23.316;2023-03-20T11:53:28;94582.84;;;29.51;12.84
29197;BME280;62796;42.654;23.316;2023-03-20T11:56:02;94581.66;;;29.14;13.10
29197;BME280;62796;42.654;23.316;2023-03-20T11:58:29;94575.78;;;28.90;13.39
29197;BME280;62796;42.654;23.316;2023-03-20T12:00:55;94571.13;;;29.26;12.92
29197;BME280;62796;42.654;23.316;2023-03-20T12:05:59;94562.59;;;29.89;12.29
29197;BME280;62796;42.654;23.316;2023-03-20T12:08:27;94553.91;;;29.99;12.17
29197;BME280;62796;42.654;23.316;2023-03-20T12:10:59;94556.75;;;30.32;11.45
29197;BME280;62796;42.654;23.316;2023-03-20T12:13:31;94558.31;;;30.56;11.30
29197;BME280;62796;42.654;23.316;2023-03-20T12:16:10;94558.38;;;30.91;11.07
29197;BME280;62796;42.654;23.316;2023-03-20T12:18:51;94549.44;;;31.19;11.02
29197;BME280;62796;42.654;23.316;2023-03-20T12:21:47;94538.97;;;31.36;10.57
29197;BME280;62796;42.654;23.316;2023-03-20T12:24:52;94539.47;;;31.44;10.31
29197;BME280;62796;42.654;23.316;2023-03-20T12:27:20;94536.44;;;31.65;10.65
29197;BME280;62796;42.654;23.316;2023-03-20T12:29:59;94540.13;;;31.79;10.38
29197;BME280;62796;42.654;23.316;2023-03-20T12:35:29;94529.53;;;31.10;11.07
29197;BME280;62796;42.654;23.316;2023-03-20T12:37:56;94532.75;;;31.27;10.89
29197;BME280;62796;42.654;23.316;2023-03-20T12:40:50;94523.63;;;31.54;10.35
29197;BME280;62796;42.654;23.316;2023-03-20T12:43:17;94517.22;;;31.79;11.04
29197;BME280;62796;42.654;23.316;2023-03-20T12:59:12;94498.19;;;32.48;9.77
29197;BME280;62796;42.654;23.316;2023-03-20T13:02:11;94500.28;;;32.59;9.43
29197;BME280;62796;42.654;23.316;2023-03-20T13:04:59;94494.16;;;32.64;8.93
29197;BME280;62796;42.654;23.316;2023-03-20T13:10:32;94485.22;;;32.58;9.05
29197;BME280;62796;42.654;23.316;2023-03-20T13:13:13;94488.13;;;32.47;9.08
29197;BME280;62796;42.654;23.316;2023-03-20T13:21:00;94457.22;;;32.06;9.13
29197;BME280;62796;42.654;23.316;2023-03-20T13:28:32;94459.19;;;32.29;9.22
29197;BME280;62796;42.654;23.316;2023-03-20T13:39:30;94435.31;;;31.74;8.72
29197;BME280;62796;42.654;23.316;2023-03-20T13:41:59;94442.38;;;31.48;9.37
29197;BME280;62796;42.654;23.316;2023-03-20T13:44:28;94436.19;;;31.40;10.18
29197;BME280;62796;42.654;23.316;2023-03-20T13:46:59;94435.81;;;31.34;10.14
29197;BME280;62796;42.654;23.316;2023-03-20T13:49:49;94436.00;;;31.12;10.02
29197;BME280;62796;42.654;23.316;2023-03-20T13:52:20;94434.41;;;30.86;10.23
29197;BME280;62796;42.654;23.316;2023-03-20T13:54:52;94433.69;;;30.62;10.00
29197;BME280;62796;42.654;23.316;2023-03-20T14:00:22;94430.78;;;30.04;10.10
29197;BME280;62796;42.654;23.316;2023-03-20T14:03:18;94425.53;;;29.89;10.13
29197;BME280;62796;42.654;23.316;2023-03-20T14:05:48;94420.47;;;29.67;10.67
29197;BME280;62796;42.654;23.316;2023-03-20T14:11:24;94404.81;;;29.56;11.10
29197;BME280;62796;42.654;23.316;2023-03-20T14:14:13;94405.97;;;29.74;11.13
29197;BME280;62796;42.654;23.316;2023-03-20T14:16:39;94407.28;;;29.83;11.44
29197;BME280;62796;42.654;23.316;2023-03-20T14:19:20;94399.41;;;29.72;10.93
29197;BME280;62796;42.654;23.316;2023-03-20T14:21:47;94398.84;;;29.52;10.78
29197;BME280;62796;42.654;23.316;2023-03-20T14:24:15;94391.41;;;29.26;10.84
29197;BME280;62796;42.654;23.316;2023-03-20T14:26:42;94393.16;;;29.09;11.39
29197;BME280;62796;42.654;23.316;2023-03-20T14:31:37;94390.09;;;28.53;11.57
29197;BME280;62796;42.654;23.316;2023-03-20T14:34:13;94384.50;;;28.34;11.92
29197;BME280;62796;42.654;23.316;2023-03-20T14:37:02;94383.28;;;28.07;11.58
29197;BME280;62796;42.654;23.316;2023-03-20T14:39:53;94379.91;;;27.79;11.59
29197;BME280;62796;42.654;23.316;2023-03-20T14:45:13;94383.56;;;27.32;12.34
29197;BME280;62796;42.654;23.316;2023-03-20T15:01:03;94381.50;;;25.93;13.97
29197;BME280;62796;42.654;23.316;2023-03-20T15:03:30;94378.75;;;25.75;14.68
29197;BME280;62796;42.654;23.316;2023-03-20T15:06:01;94373.91;;;25.59;15.00
29197;BME280;62796;42.654;23.316;2023-03-20T15:08:31;94374.59;;;25.50;15.00
29197;BME280;62796;42.654;23.316;2023-03-20T15:11:03;94382.25;;;25.40;15.24
29197;BME280;62796;42.654;23.316;2023-03-20T15:13:30;94379.06;;;25.26;15.54
29197;BME280;62796;42.654;23.316;2023-03-20T15:16:04;94374.75;;;25.08;15.17
29197;BME280;62796;42.654;23.316;2023-03-20T15:18:37;94382.34;;;24.88;14.86
29197;BME280;62796;42.654;23.316;2023-03-20T15:21:03;94378.91;;;24.72;15.53
29197;BME280;62796;42.654;23.316;2023-03-20T15:23:28;94377.72;;;24.58;15.63
29197;BME280;62796;42.654;23.316;2023-03-20T15:25:53;94372.56;;;24.47;15.67
29197;BME280;62796;42.654;23.316;2023-03-20T15:28:23;94366.72;;;24.28;16.01
29197;BME280;62796;42.654;23.316;2023-03-20T15:30:51;94360.78;;;24.16;16.09